createdAt,value
2019-01-05T00:00:09.326Z,1015.03
2019-01-05T00:01:09.313Z,1014.98
2019-01-05T00:02:09.326Z,1015.04
2019-01-05T00:03:09.307Z,1014.99
2019-01-05T00:04:09.322Z,1015.06
2019-01-05T00:05:09.336Z,1015.02
2019-01-05T00:06:09.385Z,1015.12
2019-01-05T00:07:09.333Z,1015.08
2019-01-05T00:08:09.373Z,1015.14
2019-01-05T00:09:09.365Z,1015.09
2019-01-05T00:10:09.336Z,1015.20
2019-01-05T00:11:09.384Z,1015.15
2019-01-05T00:12:09.402Z,1015.17
2019-01-05T00:13:09.371Z,1015.08
2019-01-05T00:14:09.368Z,1015.06
2019-01-05T00:15:09.376Z,1015.05
2019-01-05T00:16:09.363Z,1015.05
2019-01-05T00:17:09.384Z,1015.01
2019-01-05T00:18:09.394Z,1014.94
2019-01-05T00:19:09.403Z,1014.97
2019-01-05T00:20:09.411Z,1014.93
2019-01-05T00:21:09.421Z,1014.91
2019-01-05T00:22:09.425Z,1014.88
2019-01-05T00:23:09.462Z,1014.85
2019-01-05T00:24:09.394Z,1014.80
2019-01-05T00:25:09.391Z,1014.79
2019-01-05T00:26:09.405Z,1014.77
2019-01-05T00:27:09.468Z,1014.69
2019-01-05T00:28:09.414Z,1014.70
2019-01-05T00:29:09.472Z,1014.68
2019-01-05T00:30:09.422Z,1014.76
2019-01-05T00:31:09.432Z,1014.72
2019-01-05T00:32:09.441Z,1014.73
2019-01-05T00:33:09.443Z,1014.72
2019-01-05T00:34:09.562Z,1014.70
2019-01-05T00:35:09.506Z,1014.69
2019-01-05T00:36:09.494Z,1014.68
2019-01-05T00:37:09.501Z,1014.71
2019-01-05T00:38:09.516Z,1014.70
2019-01-05T00:39:09.504Z,1014.68
2019-01-05T00:40:09.519Z,1014.71
2019-01-05T00:41:10.105Z,1014.70
2019-01-05T00:42:09.483Z,1014.61
2019-01-05T00:43:09.496Z,1014.69
2019-01-05T00:44:09.499Z,1014.66
2019-01-05T00:45:09.534Z,1014.69
2019-01-05T00:46:09.533Z,1014.64
2019-01-05T00:47:09.547Z,1014.62
2019-01-05T00:48:09.499Z,1014.64
2019-01-05T00:49:09.580Z,1014.69
2019-01-05T00:50:09.585Z,1014.59
2019-01-05T00:51:09.580Z,1014.57
2019-01-05T00:52:09.563Z,1014.49
2019-01-05T00:53:09.571Z,1014.46
2019-01-05T00:54:09.984Z,1014.49
2019-01-05T00:55:09.637Z,1014.39
2019-01-05T00:56:10.098Z,1014.33
2019-01-05T00:57:09.937Z,1014.34
2019-01-05T00:58:09.551Z,1014.28
2019-01-05T00:59:09.558Z,1014.23
2019-01-05T01:00:09.605Z,1014.15
2019-01-05T01:01:09.590Z,1014.17
2019-01-05T01:02:09.567Z,1014.23
2019-01-05T01:03:09.557Z,1014.16
2019-01-05T01:04:09.584Z,1014.15
2019-01-05T01:05:09.583Z,1014.15
2019-01-05T01:06:09.661Z,1014.13
2019-01-05T01:07:09.598Z,1014.09
2019-01-05T01:08:09.622Z,1014.08
2019-01-05T01:09:09.589Z,1014.07
2019-01-05T01:10:09.581Z,1014.11
2019-01-05T01:11:09.666Z,1014.08
2019-01-05T01:12:09.626Z,1014.08
2019-01-05T01:13:09.804Z,1013.97
2019-01-05T01:14:09.617Z,1014.02
2019-01-05T01:15:09.614Z,1014.02
2019-01-05T01:16:09.636Z,1014.00
2019-01-05T01:17:09.643Z,1013.97
2019-01-05T01:18:09.652Z,1013.95
2019-01-05T01:19:09.637Z,1013.89
2019-01-05T01:20:09.659Z,1013.85
2019-01-05T01:21:09.630Z,1013.88
2019-01-05T01:22:09.668Z,1013.84
2019-01-05T01:23:09.660Z,1013.84
2019-01-05T01:24:09.677Z,1013.82
2019-01-05T01:25:09.655Z,1013.81
2019-01-05T01:26:09.665Z,1013.90
2019-01-05T01:27:09.768Z,1013.81
2019-01-05T01:28:09.679Z,1013.75
2019-01-05T01:29:09.669Z,1013.76
2019-01-05T01:30:09.677Z,1013.72
2019-01-05T01:31:09.692Z,1013.71
2019-01-05T01:32:09.720Z,1013.70
2019-01-05T01:33:09.752Z,1013.67
2019-01-05T01:34:09.760Z,1013.72
2019-01-05T01:35:09.700Z,1013.62
2019-01-05T01:36:09.704Z,1013.65
2019-01-05T01:37:09.730Z,1013.64
2019-01-05T01:38:09.773Z,1013.61
2019-01-05T01:39:09.749Z,1013.64
2019-01-05T01:40:09.705Z,1013.62
2019-01-05T01:41:09.807Z,1013.62
2019-01-05T01:42:09.729Z,1013.62
2019-01-05T01:43:09.769Z,1013.66
2019-01-05T01:44:09.816Z,1013.62
2019-01-05T01:45:09.782Z,1013.59
2019-01-05T01:46:09.803Z,1013.53
2019-01-05T01:47:09.796Z,1013.53
2019-01-05T01:48:09.811Z,1013.62
2019-01-05T01:49:09.858Z,1013.49
2019-01-05T01:50:09.803Z,1013.50
2019-01-05T01:51:09.782Z,1013.56
2019-01-05T01:52:09.767Z,1013.56
2019-01-05T01:53:09.836Z,1013.53
2019-01-05T01:54:09.882Z,1013.55
2019-01-05T01:55:09.818Z,1013.52
2019-01-05T01:56:09.816Z,1013.57
2019-01-05T01:57:09.847Z,1013.59
2019-01-05T01:58:09.794Z,1013.53
2019-01-05T01:59:09.868Z,1013.55
2019-01-05T02:00:09.865Z,1013.47
2019-01-05T02:01:09.845Z,1013.49
2019-01-05T02:02:09.859Z,1013.43
2019-01-05T02:03:09.837Z,1013.41
2019-01-05T02:04:09.875Z,1013.40
2019-01-05T02:05:09.887Z,1013.33
2019-01-05T02:06:09.829Z,1013.33
2019-01-05T02:07:09.823Z,1013.29
2019-01-05T02:08:09.855Z,1013.29
2019-01-05T02:09:09.886Z,1013.24
2019-01-05T02:10:09.960Z,1013.27
2019-01-05T02:11:09.877Z,1013.26
2019-01-05T02:12:09.892Z,1013.29
2019-01-05T02:13:09.890Z,1013.25
2019-01-05T02:14:09.905Z,1013.23
2019-01-05T02:15:09.885Z,1013.20
2019-01-05T02:16:09.904Z,1013.16
2019-01-05T02:17:09.926Z,1013.11
2019-01-05T02:18:09.892Z,1013.05
2019-01-05T02:19:09.901Z,1013.10
2019-01-05T02:20:09.943Z,1013.06
2019-01-05T02:21:09.957Z,1013.01
2019-01-05T02:22:09.979Z,1012.98
2019-01-05T02:23:09.937Z,1012.97
2019-01-05T02:24:10.018Z,1012.96
2019-01-05T02:25:09.933Z,1012.94
2019-01-05T02:26:09.992Z,1012.93
2019-01-05T02:27:09.927Z,1012.95
2019-01-05T02:28:09.975Z,1012.95
2019-01-05T02:29:09.947Z,1012.85
2019-01-05T02:30:09.932Z,1012.88
2019-01-05T02:31:09.975Z,1012.85
2019-01-05T02:32:10.002Z,1012.81
2019-01-05T02:33:09.969Z,1012.80
2019-01-05T02:34:10.003Z,1012.78
2019-01-05T02:35:10.005Z,1012.74
2019-01-05T02:36:09.968Z,1012.73
2019-01-05T02:37:09.977Z,1012.70
2019-01-05T02:38:09.980Z,1012.67
2019-01-05T02:39:09.990Z,1012.65
2019-01-05T02:40:10.017Z,1012.63
2019-01-05T02:41:10.007Z,1012.62
2019-01-05T02:42:10.000Z,1012.64
2019-01-05T02:43:10.178Z,1012.70
2019-01-05T02:44:10.040Z,1012.65
2019-01-05T02:45:10.061Z,1012.67
2019-01-05T02:46:10.020Z,1012.62
2019-01-05T02:47:10.066Z,1012.63
2019-01-05T02:48:10.057Z,1012.61
2019-01-05T02:49:10.102Z,1012.61
2019-01-05T02:50:10.055Z,1012.50
2019-01-05T02:51:10.029Z,1012.51
2019-01-05T02:52:10.030Z,1012.48
2019-01-05T02:53:10.042Z,1012.43
2019-01-05T02:54:10.046Z,1012.37
2019-01-05T02:55:10.108Z,1012.44
2019-01-05T02:56:10.067Z,1012.28
2019-01-05T02:57:10.054Z,1012.41
2019-01-05T02:58:10.121Z,1012.39
2019-01-05T02:59:10.118Z,1012.38
2019-01-05T03:00:10.073Z,1012.36
2019-01-05T03:01:11.013Z,1012.32
2019-01-05T03:02:10.079Z,1012.24
2019-01-05T03:03:10.447Z,1012.26
2019-01-05T03:04:10.127Z,1012.22
2019-01-05T03:05:10.092Z,1012.20
2019-01-05T03:06:10.104Z,1012.22
2019-01-05T03:07:10.093Z,1012.16
2019-01-05T03:08:10.095Z,1012.20
2019-01-05T03:09:10.090Z,1012.14
2019-01-05T03:10:10.154Z,1012.23
2019-01-05T03:11:10.101Z,1012.20
2019-01-05T03:12:10.211Z,1012.18
2019-01-05T03:13:10.206Z,1012.21
2019-01-05T03:14:10.120Z,1012.20
2019-01-05T03:15:10.143Z,1012.22
2019-01-05T03:16:10.136Z,1012.17
2019-01-05T03:17:10.143Z,1012.25
2019-01-05T03:18:11.023Z,1012.17
2019-01-05T03:19:10.203Z,1012.21
2019-01-05T03:20:10.166Z,1012.15
2019-01-05T03:21:10.204Z,1012.17
2019-01-05T03:22:10.187Z,1012.16
2019-01-05T03:23:10.177Z,1012.17
2019-01-05T03:24:10.422Z,1012.16
2019-01-05T03:25:10.170Z,1012.19
2019-01-05T03:26:10.224Z,1012.21
2019-01-05T03:27:10.210Z,1012.14
2019-01-05T03:28:10.225Z,1012.15
2019-01-05T03:29:10.238Z,1012.12
2019-01-05T03:30:10.218Z,1012.07
2019-01-05T03:31:10.232Z,1012.06
2019-01-05T03:32:11.114Z,1012.08
2019-01-05T03:33:10.251Z,1012.02
2019-01-05T03:34:10.277Z,1012.05
2019-01-05T03:35:10.333Z,1012.10
2019-01-05T03:36:10.237Z,1011.99
2019-01-05T03:37:10.246Z,1012.00
2019-01-05T03:38:10.234Z,1012.02
2019-01-05T03:39:10.333Z,1011.96
2019-01-05T03:40:10.302Z,1012.00
2019-01-05T03:41:10.306Z,1012.01
2019-01-05T03:42:10.253Z,1012.01
2019-01-05T03:43:10.543Z,1012.03
2019-01-05T03:44:10.292Z,1011.99
2019-01-05T03:45:10.276Z,1011.97
2019-01-05T03:46:10.292Z,1011.99
2019-01-05T03:47:10.272Z,1012.02
2019-01-05T03:48:10.286Z,1011.98
2019-01-05T03:49:10.304Z,1011.98
2019-01-05T03:50:10.483Z,1011.94
2019-01-05T03:51:10.299Z,1012.02
2019-01-05T03:52:10.304Z,1012.00
2019-01-05T03:53:10.467Z,1011.93
2019-01-05T03:54:10.325Z,1011.93
2019-01-05T03:55:10.345Z,1011.92
2019-01-05T03:56:10.305Z,1011.93
2019-01-05T03:57:10.321Z,1011.95
2019-01-05T03:58:10.358Z,1011.96
2019-01-05T03:59:10.398Z,1011.93
2019-01-05T04:00:10.342Z,1011.89
2019-01-05T04:01:10.417Z,1011.85
2019-01-05T04:02:10.733Z,1011.86
2019-01-05T04:03:10.450Z,1011.83
2019-01-05T04:04:10.408Z,1011.85
2019-01-05T04:05:10.349Z,1011.88
2019-01-05T04:06:10.367Z,1011.88
2019-01-05T04:07:10.381Z,1011.87
2019-01-05T04:08:10.601Z,1011.84
2019-01-05T04:09:10.473Z,1011.90
2019-01-05T04:10:10.372Z,1012.00
2019-01-05T04:11:10.379Z,1011.93
2019-01-05T04:12:10.419Z,1011.91
2019-01-05T04:13:10.474Z,1011.87
2019-01-05T04:14:10.453Z,1011.85
2019-01-05T04:15:10.542Z,1011.84
2019-01-05T04:16:10.423Z,1011.81
2019-01-05T04:17:10.604Z,1011.79
2019-01-05T04:18:10.526Z,1011.74
2019-01-05T04:19:10.649Z,1011.76
2019-01-05T04:20:10.471Z,1011.74
2019-01-05T04:21:10.466Z,1011.63
2019-01-05T04:22:10.496Z,1011.69
2019-01-05T04:23:10.436Z,1011.76
2019-01-05T04:24:10.440Z,1011.71
2019-01-05T04:25:10.425Z,1011.70
2019-01-05T04:26:10.513Z,1011.79
2019-01-05T04:27:10.457Z,1011.71
2019-01-05T04:28:10.441Z,1011.70
2019-01-05T04:29:10.444Z,1011.75
2019-01-05T04:30:10.461Z,1011.70
2019-01-05T04:31:10.471Z,1011.73
2019-01-05T04:32:10.480Z,1011.67
2019-01-05T04:33:10.516Z,1011.66
2019-01-05T04:34:10.504Z,1011.67
2019-01-05T04:35:10.509Z,1011.64
2019-01-05T04:36:10.494Z,1011.66
2019-01-05T04:37:10.507Z,1011.70
2019-01-05T04:38:10.492Z,1011.71
2019-01-05T04:39:10.498Z,1011.70
2019-01-05T04:40:10.515Z,1011.71
2019-01-05T04:41:10.540Z,1011.75
2019-01-05T04:42:10.549Z,1011.78
2019-01-05T04:43:10.554Z,1011.67
2019-01-05T04:44:10.538Z,1011.64
2019-01-05T04:45:10.578Z,1011.72
2019-01-05T04:46:10.531Z,1011.69
2019-01-05T04:47:10.576Z,1011.72
2019-01-05T04:48:10.688Z,1011.67
2019-01-05T04:49:10.546Z,1011.69
2019-01-05T04:50:10.580Z,1011.67
2019-01-05T04:51:10.608Z,1011.69
2019-01-05T04:52:10.598Z,1011.69
2019-01-05T04:53:10.609Z,1011.69
2019-01-05T04:54:10.632Z,1011.71
2019-01-05T04:55:10.615Z,1011.68
2019-01-05T04:56:10.579Z,1011.70
2019-01-05T04:57:10.659Z,1011.69
2019-01-05T04:58:10.611Z,1011.73
2019-01-05T04:59:10.703Z,1011.73
2019-01-05T05:00:10.613Z,1011.79
2019-01-05T05:01:10.631Z,1011.72
2019-01-05T05:02:10.691Z,1011.73
2019-01-05T05:03:10.597Z,1011.63
2019-01-05T05:04:10.624Z,1011.61
2019-01-05T05:05:10.664Z,1011.64
2019-01-05T05:06:10.677Z,1011.62
2019-01-05T05:07:10.636Z,1011.62
2019-01-05T05:08:10.660Z,1011.63
2019-01-05T05:09:10.672Z,1011.59
2019-01-05T05:10:11.089Z,1011.61
2019-01-05T05:11:10.656Z,1011.61
2019-01-05T05:12:10.717Z,1011.65
2019-01-05T05:13:10.738Z,1011.64
2019-01-05T05:14:10.702Z,1011.67
2019-01-05T05:15:10.659Z,1011.63
2019-01-05T05:16:10.700Z,1011.64
2019-01-05T05:17:10.725Z,1011.68
2019-01-05T05:18:10.696Z,1011.62
2019-01-05T05:19:10.707Z,1011.60
2019-01-05T05:20:10.690Z,1011.63
2019-01-05T05:21:10.747Z,1011.63
2019-01-05T05:22:10.747Z,1011.63
2019-01-05T05:23:10.685Z,1011.64
2019-01-05T05:24:10.779Z,1011.67
2019-01-05T05:25:10.733Z,1011.59
2019-01-05T05:26:10.949Z,1011.60
2019-01-05T05:27:10.791Z,1011.61
2019-01-05T05:28:10.768Z,1011.52
2019-01-05T05:29:10.755Z,1011.58
2019-01-05T05:30:10.782Z,1011.51
2019-01-05T05:31:10.740Z,1011.51
2019-01-05T05:32:10.791Z,1011.55
2019-01-05T05:33:10.733Z,1011.53
2019-01-05T05:34:10.803Z,1011.46
2019-01-05T05:35:10.762Z,1011.46
2019-01-05T05:36:10.789Z,1011.48
2019-01-05T05:37:10.794Z,1011.48
2019-01-05T05:38:10.876Z,1011.58
2019-01-05T05:39:10.799Z,1011.56
2019-01-05T05:40:10.781Z,1011.61
2019-01-05T05:41:10.808Z,1011.57
2019-01-05T05:42:10.800Z,1011.54
2019-01-05T05:43:10.817Z,1011.58
2019-01-05T05:44:10.892Z,1011.50
2019-01-05T05:45:10.821Z,1011.53
2019-01-05T05:46:10.783Z,1011.52
2019-01-05T05:47:10.810Z,1011.54
2019-01-05T05:48:10.842Z,1011.51
2019-01-05T05:49:10.959Z,1011.56
2019-01-05T05:50:10.806Z,1011.61
2019-01-05T05:51:10.860Z,1011.56
2019-01-05T05:52:10.816Z,1011.56
2019-01-05T05:53:10.834Z,1011.51
2019-01-05T05:54:10.915Z,1011.50
2019-01-05T05:55:10.849Z,1011.54
2019-01-05T05:56:10.907Z,1011.47
2019-01-05T05:57:10.849Z,1011.50
2019-01-05T05:58:10.868Z,1011.47
2019-01-05T05:59:10.876Z,1011.46
2019-01-05T06:00:10.875Z,1011.33
2019-01-05T06:01:10.877Z,1011.41
2019-01-05T06:02:11.035Z,1011.39
2019-01-05T06:03:10.886Z,1011.44
2019-01-05T06:04:10.898Z,1011.37
2019-01-05T06:05:10.952Z,1011.35
2019-01-05T06:06:10.950Z,1011.34
2019-01-05T06:07:10.899Z,1011.39
2019-01-05T06:08:10.959Z,1011.44
2019-01-05T06:09:10.946Z,1011.40
2019-01-05T06:10:10.965Z,1011.39
2019-01-05T06:11:10.941Z,1011.32
2019-01-05T06:12:10.978Z,1011.32
2019-01-05T06:13:10.951Z,1011.39
2019-01-05T06:14:11.000Z,1011.39
2019-01-05T06:15:10.971Z,1011.41
2019-01-05T06:16:11.050Z,1011.35
2019-01-05T06:17:10.940Z,1011.41
2019-01-05T06:18:11.038Z,1011.46
2019-01-05T06:19:10.936Z,1011.52
2019-01-05T06:20:10.987Z,1011.56
2019-01-05T06:21:10.958Z,1011.55
2019-01-05T06:22:11.008Z,1011.57
2019-01-05T06:23:10.996Z,1011.66
2019-01-05T06:24:11.004Z,1011.65
2019-01-05T06:25:11.081Z,1011.67
2019-01-05T06:26:10.983Z,1011.61
2019-01-05T06:27:11.050Z,1011.64
2019-01-05T06:28:10.988Z,1011.66
2019-01-05T06:29:11.547Z,1011.65
2019-01-05T06:30:11.040Z,1011.73
2019-01-05T06:31:11.026Z,1011.73
2019-01-05T06:32:11.016Z,1011.72
2019-01-05T06:33:11.045Z,1011.71
2019-01-05T06:34:11.086Z,1011.71
2019-01-05T06:35:11.050Z,1011.70
2019-01-05T06:36:11.086Z,1011.78
2019-01-05T06:37:11.049Z,1011.80
2019-01-05T06:38:11.049Z,1011.87
2019-01-05T06:39:11.031Z,1011.92
2019-01-05T06:40:11.070Z,1011.90
2019-01-05T06:41:11.078Z,1011.92
2019-01-05T06:42:11.075Z,1011.83
2019-01-05T06:43:11.053Z,1011.80
2019-01-05T06:44:11.059Z,1011.84
2019-01-05T06:45:11.135Z,1011.80
2019-01-05T06:46:11.119Z,1011.87
2019-01-05T06:47:11.087Z,1011.89
2019-01-05T06:48:11.091Z,1012.00
2019-01-05T06:49:11.375Z,1011.97
2019-01-05T06:50:11.138Z,1012.04
2019-01-05T06:51:11.150Z,1012.11
2019-01-05T06:52:11.169Z,1012.18
2019-01-05T06:53:11.115Z,1012.21
2019-01-05T06:54:11.151Z,1012.28
2019-01-05T06:55:11.109Z,1012.29
2019-01-05T06:56:11.125Z,1012.32
2019-01-05T06:57:11.142Z,1012.32
2019-01-05T06:58:11.146Z,1012.38
2019-01-05T06:59:11.139Z,1012.37
2019-01-05T07:00:11.135Z,1012.39
2019-01-05T07:01:11.160Z,1012.40
2019-01-05T07:02:11.161Z,1012.47
2019-01-05T07:03:11.128Z,1012.56
2019-01-05T07:04:11.132Z,1012.48
2019-01-05T07:05:11.249Z,1012.51
2019-01-05T07:06:11.145Z,1012.53
2019-01-05T07:07:11.187Z,1012.45
2019-01-05T07:08:11.159Z,1012.47
2019-01-05T07:09:11.171Z,1012.52
2019-01-05T07:10:11.173Z,1012.46
2019-01-05T07:11:12.447Z,1012.61
2019-01-05T07:12:11.370Z,1012.51
2019-01-05T07:13:11.195Z,1012.50
2019-01-05T07:14:11.347Z,1012.47
2019-01-05T07:15:11.346Z,1012.52
2019-01-05T07:16:11.407Z,1012.54
2019-01-05T07:17:11.367Z,1012.48
2019-01-05T07:18:11.216Z,1012.49
2019-01-05T07:19:11.213Z,1012.54
2019-01-05T07:20:11.213Z,1012.46
2019-01-05T07:21:11.211Z,1012.58
2019-01-05T07:22:11.245Z,1012.55
2019-01-05T07:23:11.236Z,1012.63
2019-01-05T07:24:11.233Z,1012.51
2019-01-05T07:25:11.245Z,1012.49
2019-01-05T07:26:11.244Z,1012.57
2019-01-05T07:27:11.270Z,1012.58
2019-01-05T07:28:11.245Z,1012.77
2019-01-05T07:29:11.304Z,1012.76
2019-01-05T07:30:11.260Z,1012.77
2019-01-05T07:31:11.278Z,1012.80
2019-01-05T07:32:11.329Z,1012.78
2019-01-05T07:33:11.307Z,1012.85
2019-01-05T07:34:11.303Z,1012.84
2019-01-05T07:35:11.284Z,1012.88
2019-01-05T07:36:11.300Z,1013.00
2019-01-05T07:37:11.354Z,1013.06
2019-01-05T07:38:11.318Z,1013.04
2019-01-05T07:39:11.307Z,1013.00
2019-01-05T07:40:11.342Z,1013.00
2019-01-05T07:41:11.326Z,1013.03
2019-01-05T07:42:11.363Z,1013.01
2019-01-05T07:43:11.394Z,1012.99
2019-01-05T07:44:11.341Z,1013.04
2019-01-05T07:45:11.343Z,1013.00
2019-01-05T07:46:11.336Z,1013.08
2019-01-05T07:47:11.461Z,1013.13
2019-01-05T07:48:11.346Z,1013.07
2019-01-05T07:49:11.345Z,1013.10
2019-01-05T07:50:11.382Z,1013.12
2019-01-05T07:51:11.410Z,1013.17
2019-01-05T07:52:11.363Z,1013.21
2019-01-05T07:53:11.389Z,1013.12
2019-01-05T07:54:11.388Z,1013.13
2019-01-05T07:55:11.523Z,1013.21
2019-01-05T07:56:11.394Z,1013.22
2019-01-05T07:57:11.409Z,1013.27
2019-01-05T07:58:11.443Z,1013.30
2019-01-05T07:59:11.409Z,1013.28
2019-01-05T08:00:11.400Z,1013.29
2019-01-05T08:01:11.461Z,1013.27
2019-01-05T08:02:11.424Z,1013.24
2019-01-05T08:03:11.437Z,1013.36
2019-01-05T08:04:11.483Z,1013.35
2019-01-05T08:05:11.439Z,1013.32
2019-01-05T08:06:11.474Z,1013.34
2019-01-05T08:07:11.491Z,1013.37
2019-01-05T08:08:11.484Z,1013.33
2019-01-05T08:09:11.469Z,1013.41
2019-01-05T08:10:11.477Z,1013.39
2019-01-05T08:11:11.447Z,1013.40
2019-01-05T08:12:11.498Z,1013.36
2019-01-05T08:13:11.473Z,1013.54
2019-01-05T08:14:11.498Z,1013.47
2019-01-05T08:15:11.515Z,1013.33
2019-01-05T08:16:11.470Z,1013.36
2019-01-05T08:17:11.485Z,1013.38
2019-01-05T08:18:11.486Z,1013.37
2019-01-05T08:19:11.525Z,1013.34
2019-01-05T08:20:11.509Z,1013.29
2019-01-05T08:21:11.510Z,1013.37
2019-01-05T08:22:11.533Z,1013.38
2019-01-05T08:23:11.517Z,1013.34
2019-01-05T08:24:11.517Z,1013.35
2019-01-05T08:25:11.627Z,1013.46
2019-01-05T08:26:11.527Z,1013.41
2019-01-05T08:27:11.534Z,1013.45
2019-01-05T08:28:11.540Z,1013.49
2019-01-05T08:29:11.559Z,1013.52
2019-01-05T08:30:11.539Z,1013.51
2019-01-05T08:31:11.586Z,1013.53
2019-01-05T08:32:11.564Z,1013.52
2019-01-05T08:33:11.554Z,1013.55
2019-01-05T08:34:11.617Z,1013.53
2019-01-05T08:35:11.607Z,1013.51
2019-01-05T08:36:11.714Z,1013.52
2019-01-05T08:37:11.585Z,1013.62
2019-01-05T08:38:11.597Z,1013.47
2019-01-05T08:39:11.587Z,1013.55
2019-01-05T08:40:11.654Z,1013.54
2019-01-05T08:41:11.600Z,1013.54
2019-01-05T08:42:11.608Z,1013.50
2019-01-05T08:43:11.613Z,1013.56
2019-01-05T08:44:11.609Z,1013.59
2019-01-05T08:45:11.634Z,1013.56
2019-01-05T08:46:11.646Z,1013.64
2019-01-05T08:47:12.052Z,1013.58
2019-01-05T08:48:11.653Z,1013.59
2019-01-05T08:49:11.640Z,1013.66
2019-01-05T08:50:11.999Z,1013.59
2019-01-05T08:51:11.696Z,1013.63
2019-01-05T08:52:11.666Z,1013.69
2019-01-05T08:53:11.663Z,1013.64
2019-01-05T08:54:11.718Z,1013.67
2019-01-05T08:55:11.685Z,1013.64
2019-01-05T08:56:11.690Z,1013.68
2019-01-05T08:57:11.721Z,1013.67
2019-01-05T08:58:11.689Z,1013.66
2019-01-05T08:59:11.730Z,1013.75
2019-01-05T09:00:11.785Z,1013.79
2019-01-05T09:01:11.756Z,1013.82
2019-01-05T09:02:11.742Z,1013.79
2019-01-05T09:03:11.744Z,1013.81
2019-01-05T09:04:11.711Z,1013.80
2019-01-05T09:05:11.763Z,1013.77
2019-01-05T09:06:11.768Z,1013.89
2019-01-05T09:07:11.735Z,1013.75
2019-01-05T09:08:11.753Z,1013.82
2019-01-05T09:09:11.756Z,1013.76
2019-01-05T09:10:11.753Z,1013.86
2019-01-05T09:11:11.748Z,1013.80
2019-01-05T09:12:11.850Z,1013.81
2019-01-05T09:13:11.789Z,1013.81
2019-01-05T09:14:11.817Z,1013.83
2019-01-05T09:15:11.892Z,1013.88
2019-01-05T09:16:11.844Z,1013.91
2019-01-05T09:17:11.805Z,1013.85
2019-01-05T09:18:11.818Z,1013.84
2019-01-05T09:19:11.859Z,1013.86
2019-01-05T09:20:11.816Z,1013.85
2019-01-05T09:21:11.828Z,1013.90
2019-01-05T09:22:11.813Z,1013.94
2019-01-05T09:23:11.805Z,1013.98
2019-01-05T09:24:11.851Z,1013.86
2019-01-05T09:25:11.838Z,1013.89
2019-01-05T09:26:11.962Z,1013.78
2019-01-05T09:27:11.900Z,1013.80
2019-01-05T09:28:11.868Z,1013.78
2019-01-05T09:29:11.857Z,1013.78
2019-01-05T09:30:11.918Z,1013.82
2019-01-05T09:31:11.856Z,1013.77
2019-01-05T09:32:11.939Z,1013.79
2019-01-05T09:33:11.961Z,1013.81
2019-01-05T09:34:11.897Z,1013.89
2019-01-05T09:35:11.860Z,1013.82
2019-01-05T09:36:11.877Z,1013.90
2019-01-05T09:37:11.912Z,1013.82
2019-01-05T09:38:11.909Z,1013.90
2019-01-05T09:39:11.889Z,1013.88
2019-01-05T09:40:11.914Z,1013.88
2019-01-05T09:41:11.952Z,1013.89
2019-01-05T09:42:11.906Z,1013.86
2019-01-05T09:43:11.947Z,1013.91
2019-01-05T09:44:11.921Z,1013.83
2019-01-05T09:45:11.916Z,1013.82
2019-01-05T09:46:11.946Z,1013.88
2019-01-05T09:47:11.984Z,1013.91
2019-01-05T09:48:11.990Z,1014.02
2019-01-05T09:49:11.950Z,1014.00
2019-01-05T09:50:11.940Z,1014.05
2019-01-05T09:51:11.950Z,1014.02
2019-01-05T09:52:11.945Z,1014.13
2019-01-05T09:53:11.957Z,1014.06
2019-01-05T09:54:11.987Z,1014.02
2019-01-05T09:55:11.965Z,1014.01
2019-01-05T09:56:11.986Z,1013.98
2019-01-05T09:57:11.981Z,1013.95
2019-01-05T09:58:12.000Z,1013.89
2019-01-05T09:59:11.981Z,1013.97
2019-01-05T10:00:12.005Z,1013.94
2019-01-05T10:01:12.015Z,1014.04
2019-01-05T10:02:11.999Z,1014.04
2019-01-05T10:03:12.012Z,1014.01
2019-01-05T10:04:12.014Z,1014.02
2019-01-05T10:05:12.102Z,1013.95
2019-01-05T10:06:12.019Z,1013.98
2019-01-05T10:07:12.031Z,1013.97
2019-01-05T10:08:12.035Z,1014.06
2019-01-05T10:09:12.041Z,1013.97
2019-01-05T10:10:12.079Z,1013.99
2019-01-05T10:11:12.194Z,1013.99
2019-01-05T10:12:12.092Z,1013.89
2019-01-05T10:13:12.051Z,1013.87
2019-01-05T10:14:12.114Z,1013.90
2019-01-05T10:15:12.149Z,1013.92
2019-01-05T10:16:12.086Z,1013.90
2019-01-05T10:17:12.107Z,1013.87
2019-01-05T10:18:12.077Z,1013.91
2019-01-05T10:19:12.108Z,1013.99
2019-01-05T10:20:12.119Z,1014.03
2019-01-05T10:21:12.309Z,1014.00
2019-01-05T10:22:12.144Z,1014.00
2019-01-05T10:23:12.142Z,1013.98
2019-01-05T10:24:12.122Z,1014.05
2019-01-05T10:25:12.233Z,1014.04
2019-01-05T10:26:12.154Z,1014.07
2019-01-05T10:27:12.133Z,1014.05
2019-01-05T10:28:12.579Z,1014.11
2019-01-05T10:29:12.157Z,1014.12
2019-01-05T10:30:12.144Z,1014.16
2019-01-05T10:31:12.153Z,1014.14
2019-01-05T10:32:12.157Z,1014.22
2019-01-05T10:33:12.232Z,1014.24
2019-01-05T10:34:12.249Z,1014.25
2019-01-05T10:35:12.168Z,1014.40
2019-01-05T10:36:12.186Z,1014.35
2019-01-05T10:37:12.190Z,1014.25
2019-01-05T10:38:12.293Z,1014.23
2019-01-05T10:39:12.195Z,1014.25
2019-01-05T10:40:13.058Z,1014.22
2019-01-05T10:41:12.210Z,1014.28
2019-01-05T10:42:12.208Z,1014.23
2019-01-05T10:43:12.224Z,1014.26
2019-01-05T10:44:12.276Z,1014.24
2019-01-05T10:45:12.229Z,1014.23
2019-01-05T10:46:12.253Z,1014.24
2019-01-05T10:47:12.308Z,1014.26
2019-01-05T10:48:12.272Z,1014.31
2019-01-05T10:49:12.240Z,1014.30
2019-01-05T10:50:12.243Z,1014.27
2019-01-05T10:51:12.287Z,1014.30
2019-01-05T10:52:12.337Z,1014.30
2019-01-05T10:53:12.305Z,1014.25
2019-01-05T10:54:12.315Z,1014.23
2019-01-05T10:55:12.279Z,1014.29
2019-01-05T10:56:12.349Z,1014.26
2019-01-05T10:57:12.309Z,1014.27
2019-01-05T10:58:12.323Z,1014.28
2019-01-05T10:59:12.297Z,1014.29
2019-01-05T11:00:12.306Z,1014.25
2019-01-05T11:01:12.340Z,1014.33
2019-01-05T11:02:12.413Z,1014.32
2019-01-05T11:03:12.335Z,1014.39
2019-01-05T11:04:12.343Z,1014.40
2019-01-05T11:05:12.360Z,1014.41
2019-01-05T11:06:12.344Z,1014.39
2019-01-05T11:07:12.369Z,1014.39
2019-01-05T11:08:12.422Z,1014.38
2019-01-05T11:09:12.453Z,1014.38
2019-01-05T11:10:12.399Z,1014.40
2019-01-05T11:11:12.384Z,1014.38
2019-01-05T11:12:12.381Z,1014.39
2019-01-05T11:13:12.409Z,1014.44
2019-01-05T11:14:12.468Z,1014.43
2019-01-05T11:15:12.374Z,1014.40
2019-01-05T11:16:12.527Z,1014.42
2019-01-05T11:17:12.450Z,1014.43
2019-01-05T11:18:12.413Z,1014.44
2019-01-05T11:19:12.466Z,1014.39
2019-01-05T11:20:12.448Z,1014.40
2019-01-05T11:21:12.454Z,1014.36
2019-01-05T11:22:12.443Z,1014.36
2019-01-05T11:23:12.477Z,1014.33
2019-01-05T11:24:12.691Z,1014.38
2019-01-05T11:25:12.492Z,1014.40
2019-01-05T11:26:12.477Z,1014.39
2019-01-05T11:27:12.450Z,1014.42
2019-01-05T11:28:12.471Z,1014.41
2019-01-05T11:29:12.514Z,1014.37
2019-01-05T11:30:12.490Z,1014.48
2019-01-05T11:31:12.469Z,1014.42
2019-01-05T11:32:12.468Z,1014.34
2019-01-05T11:33:12.518Z,1014.34
2019-01-05T11:34:12.514Z,1014.41
2019-01-05T11:35:12.536Z,1014.42
2019-01-05T11:36:12.572Z,1014.38
2019-01-05T11:37:12.519Z,1014.39
2019-01-05T11:38:12.525Z,1014.41
2019-01-05T11:39:12.521Z,1014.48
2019-01-05T11:40:12.613Z,1014.46
2019-01-05T11:41:12.528Z,1014.44
2019-01-05T11:42:12.528Z,1014.45
2019-01-05T11:43:12.546Z,1014.46
2019-01-05T11:44:12.652Z,1014.43
2019-01-05T11:45:12.639Z,1014.42
2019-01-05T11:46:12.550Z,1014.51
2019-01-05T11:47:12.551Z,1014.41
2019-01-05T11:48:12.629Z,1014.49
2019-01-05T11:49:12.583Z,1014.50
2019-01-05T11:50:12.846Z,1014.46
2019-01-05T11:51:12.681Z,1014.51
2019-01-05T11:52:12.694Z,1014.54
2019-01-05T11:53:12.594Z,1014.50
2019-01-05T11:54:12.615Z,1014.52
2019-01-05T11:55:12.704Z,1014.49
2019-01-05T11:56:12.743Z,1014.54
2019-01-05T11:57:12.767Z,1014.56
2019-01-05T11:58:12.671Z,1014.60
2019-01-05T11:59:12.620Z,1014.56
2019-01-05T12:00:12.693Z,1014.57
2019-01-05T12:01:12.703Z,1014.63
2019-01-05T12:02:12.659Z,1014.64
2019-01-05T12:03:12.671Z,1014.65
2019-01-05T14:36:29.069Z,1015.95
2019-01-05T14:37:24.905Z,1015.90